1990 SAM (1990012S12131)


On this page: IBTrACS data - Map and Plots - Positions - Intensities - Original source data

Summary

Start Jan 11
End Jan 21
Basin SI
LMI 80 kt
Sources jtwc_sh
bom
neumann
In WMO? Yes
Previous storm 1990 KORYN (WP)
Previous in basin 1990 ROSITA (SI)
Concurrent storms 1990 ROSITA (SI)
1990 KORYN (WP)
1990 SAM (SI)
Next in basin 1990 TINA (SI)
Next storm 1990 TINA (SI)

top of page IBTrACS Data: File Access

top of page HURSAT Data: File Access

Image of storm

top of page Plots:

Map of storm track will not appear if FTP is down
Time series of cyclone Maximum Sustained Wind will not appear if FTP is down
Time series of cyclone Minimum Central Pressure will not appear if FTP is down

top of page Track Data:Position

jtwc_sh bom neumann
Date Lat Lon Lat Lon Lat Lon
1990-01-11 12:00:00 -12.0 130.5 -12.0 130.5
1990-01-11 18:00:00 -12.6 129.5 -12.6 129.5
1990-01-12 00:00:00 -12.8 128.6 -12.8 128.6
1990-01-12 06:00:00 -13.0 128.0 -13.0 127.7 -13.0 127.7
1990-01-12 12:00:00 -13.4 126.6 -13.2 126.7 -13.2 126.7
1990-01-12 18:00:00 -13.7 125.2 -13.3 125.6 -13.3 125.6
1990-01-13 00:00:00 -13.9 123.8 -13.4 124.6 -13.4 124.6
1990-01-13 06:00:00 -13.9 122.8 -13.4 123.5 -13.4 123.5
1990-01-13 12:00:00 -13.8 121.9 -13.5 122.6 -13.5 122.6
1990-01-13 18:00:00 -13.5 121.2 -13.8 121.8 -13.8 121.8
1990-01-14 00:00:00 -13.4 120.7 -14.0 121.0 -14.0 121.0
1990-01-14 06:00:00 -13.6 120.0 -14.2 119.9 -14.2 119.9
1990-01-14 12:00:00 -14.1 119.0 -14.5 118.8 -14.5 118.8
1990-01-14 18:00:00 -14.8 117.7 -14.8 117.5 -14.8 117.5
1990-01-15 00:00:00 -15.2 116.5 -15.0 116.3 -15.0 116.3
1990-01-15 06:00:00 -15.4 115.3 -15.4 115.1 -15.4 115.1
1990-01-15 12:00:00 -15.5 114.1 -15.8 114.1 -15.8 114.1
1990-01-15 18:00:00 -15.9 113.0 -16.1 113.1 -16.1 113.1
1990-01-16 00:00:00 -16.5 112.2 -16.3 112.0 -16.3 112.0
1990-01-16 06:00:00 -17.0 111.6 -16.7 110.9 -16.7 110.9
1990-01-16 12:00:00 -17.4 110.7 -17.3 109.9 -17.3 109.9
1990-01-16 18:00:00 -17.7 109.5 -18.0 109.0 -18.0 109.0
1990-01-17 00:00:00 -18.0 108.5 -18.6 108.3 -18.6 108.3
1990-01-17 06:00:00 -18.5 107.9 -19.2 107.6 -19.2 107.6
1990-01-17 12:00:00 -19.0 107.5 -19.6 107.0 -19.6 107.0
jtwc_sh bom neumann
1990-01-17 18:00:00 -19.5 107.1 -20.1 106.5 -20.1 106.5
1990-01-18 00:00:00 -20.1 106.7 -20.9 106.0 -20.9 106.0
1990-01-18 06:00:00 -20.7 106.2 -21.7 105.7 -21.7 105.7
1990-01-18 12:00:00 -21.4 105.9 -22.5 105.3 -22.5 105.3
1990-01-18 18:00:00 -22.1 105.6 -23.0 105.1 -23.0 105.1
1990-01-19 00:00:00 -22.8 105.4 -23.6 105.0 -23.6 105.0
1990-01-19 06:00:00 -23.6 105.2 -24.5 105.0 -24.5 105.0
1990-01-19 12:00:00 -24.5 105.2 -25.4 105.0 -25.4 105.0
1990-01-19 18:00:00 -25.3 105.2 -26.0 105.1 -26.0 105.1
1990-01-20 00:00:00 -26.0 105.2 -26.4 105.4 -26.4 105.4
1990-01-20 06:00:00 -26.9 106.2 -26.9 106.2
1990-01-20 12:00:00 -27.1 107.0 -27.1 107.0
1990-01-20 18:00:00 -27.4 108.1 -27.4 108.1
1990-01-21 00:00:00 -27.7 109.0 -27.7 109.0

top of pageTrack Data:Intensity

jtwc_sh bom neumann
Date Wind Pres Wind Pres Wind Pres
1990-01-11 12:00:00 27. 1003. 25. 1003.
1990-01-11 18:00:00 27. 1003. 25. 1003.
1990-01-12 00:00:00 27. 1003. 25. 1003.
1990-01-12 06:00:00 20. 27. 1002. 25. 1002.
1990-01-12 12:00:00 20. 29. 1001. 25. 1001.
1990-01-12 18:00:00 20. 33. 999. 30. 999.
1990-01-13 00:00:00 25. 35. 997. 35. 997.
1990-01-13 06:00:00 25. 39. 995. 40. 995.
1990-01-13 12:00:00 30. 41. 993. 40. 993.
1990-01-13 18:00:00 30. 52. 986. 55. 986.
1990-01-14 00:00:00 35. 58. 982. 60. 982.
1990-01-14 06:00:00 35. 64. 978. 65. 978.
1990-01-14 12:00:00 40. 70. 972. 70. 972.
1990-01-14 18:00:00 45. 70. 972. 70. 972.
1990-01-15 00:00:00 45. 70. 972. 70. 972.
1990-01-15 06:00:00 45. 66. 976. 65. 976.
1990-01-15 12:00:00 45. 66. 976. 65. 976.
1990-01-15 18:00:00 50. 66. 976. 65. 976.
1990-01-16 00:00:00 50. 66. 976. 65. 976.
1990-01-16 06:00:00 50. 66. 976. 65. 976.
1990-01-16 12:00:00 45. 68. 974. 70. 974.
1990-01-16 18:00:00 45. 68. 974. 70. 974.
1990-01-17 00:00:00 45. 70. 972. 70. 972.
1990-01-17 06:00:00 50. 74. 970. 75. 970.
1990-01-17 12:00:00 50. 76. 968. 75. 968.
jtwc_sh bom neumann
1990-01-17 18:00:00 50. 78. 966. 80. 966.
1990-01-18 00:00:00 50. 78. 966. 80. 966.
1990-01-18 06:00:00 45. 78. 966. 80. 966.
1990-01-18 12:00:00 45. 74. 970. 75. 970.
1990-01-18 18:00:00 40. 66. 975. 70. 975.
1990-01-19 00:00:00 40. 60. 980. 60. 980.
1990-01-19 06:00:00 35. 54. 985. 55. 985.
1990-01-19 12:00:00 30. 47. 990. 45. 990.
1990-01-19 18:00:00 25. 41. 994. 40. 994.
1990-01-20 00:00:00 25. 35. 997. 35. 997.
1990-01-20 06:00:00 33. 999. 30. 999.
1990-01-20 12:00:00 27. 1002. 25. 1002.
1990-01-20 18:00:00 27. 1002. 25. 1002.
1990-01-21 00:00:00 27. 1003. 25. 1003.

top of page Links to source data

Source Source file Format
jtwc_sh bsh101990.txt ATCF
bom Newcyclonedatabase-08repair.csv:Line=15535:SAM CSV file (from Excel file)
neumann tracks.sh:Storm=879:SAM:BSH101990:BM786 HURDAT